Time;durP1;ratioP1;P1;durP2;ratioP2;P2;SDS_P1;SDS_P2;PMS_P1;PMS_P2;Temp;Humidity;BMP_temperature;BMP_pressure;BME280_temperature;BME280_humidity;BME280_pressure;Samples;Min_cycle;Max_cycle;Signal;HPM_P1;HPM_P2
2023/08/17 00:01:33;;;;;;;34.55;32.75;;;;;;;18.33;100.00;101142.75;5006963;28;20042;-82
2023/08/17 00:04:00;;;;;;;32.88;31.08;;;;;;;18.39;100.00;101142.56;5003855;28;20494;-79
2023/08/17 00:06:27;;;;;;;35.92;33.28;;;;;;;18.59;100.00;101133.97;5005519;28;20411;-79
2023/08/17 00:08:54;;;;;;;32.50;30.65;;;;;;;18.47;100.00;101136.78;5010487;28;20050;-79
2023/08/17 00:11:21;;;;;;;30.00;28.20;;;;;;;18.45;100.00;101122.75;5010296;28;20056;-79
2023/08/17 00:13:48;;;;;;;30.30;28.30;;;;;;;18.18;100.00;101127.22;5009254;28;20053;-82
2023/08/17 00:16:17;;;;;;;32.35;30.52;;;;;;;18.60;100.00;101130.22;5009497;28;20426;-82
2023/08/17 00:18:44;;;;;;;26.20;24.60;;;;;;;18.94;100.00;101130.13;5004096;28;20042;-82
2023/08/17 00:21:11;;;;;;;28.60;27.10;;;;;;;18.85;100.00;101124.41;5006230;28;20137;-82
2023/08/17 00:23:38;;;;;;;33.03;31.15;;;;;;;18.96;100.00;101131.50;5006125;28;20517;-82
2023/08/17 00:26:05;;;;;;;31.65;29.95;;;;;;;18.72;100.00;101128.22;5007681;28;20069;-82
2023/08/17 00:28:31;;;;;;;35.67;33.67;;;;;;;18.68;100.00;101129.78;5005442;28;20526;-82
2023/08/17 00:31:00;;;;;;;42.25;40.03;;;;;;;18.90;100.00;101112.88;5008798;28;20038;-82
2023/08/17 00:33:28;;;;;;;38.10;36.00;;;;;;;18.53;100.00;101126.91;5007700;28;20050;-83
2023/08/17 00:35:55;;;;;;;37.47;35.42;;;;;;;18.53;100.00;101130.41;5001424;28;20054;-82
2023/08/17 00:38:22;;;;;;;33.60;31.80;;;;;;;18.56;100.00;101129.09;5009738;28;20054;-82
2023/08/17 00:40:49;;;;;;;39.63;37.30;;;;;;;18.43;100.00;101121.41;5003812;28;20059;-82
2023/08/17 00:43:16;;;;;;;42.53;40.33;;;;;;;18.63;100.00;101127.03;5009868;28;20050;-82
2023/08/17 00:45:47;;;;;;;39.03;37.13;;;;;;;18.71;100.00;101132.00;5004372;28;20300;-82
2023/08/17 00:48:15;;;;;;;37.65;35.67;;;;;;;18.51;100.00;101126.34;5000131;28;20491;-82
2023/08/17 00:50:48;;;;;;;37.22;35.22;;;;;;;18.50;100.00;101122.03;5002394;28;21422;-79
2023/08/17 00:53:16;;;;;;;;;;;;;;;18.53;100.00;101126.91;5003659;28;20060;-79
2023/08/17 00:55:43;;;;;;;41.03;38.83;;;;;;;18.06;100.00;101114.72;5003838;28;20048;-79
2023/08/17 00:58:10;;;;;;;37.17;34.85;;;;;;;18.14;100.00;101113.47;5001242;28;20069;-79
2023/08/17 01:00:37;;;;;;;44.63;42.03;;;;;;;18.45;100.00;101122.75;5001104;28;20053;-82
2023/08/17 01:03:05;;;;;;;42.58;40.25;;;;;;;18.06;100.00;101113.88;5006798;28;20057;-82
2023/08/17 01:05:33;;;;;;;42.88;40.58;;;;;;;18.32;100.00;101123.13;5009923;28;20489;-79
2023/08/17 01:08:01;;;;;;;43.35;41.25;;;;;;;18.47;100.00;101117.16;5009641;28;20172;-79
2023/08/17 01:10:32;;;;;;;40.90;38.70;;;;;;;18.26;100.00;101114.16;4998019;28;20135;-79
2023/08/17 01:13:19;;;;;;;43.15;40.25;;;;;;;18.30;100.00;101117.19;5007267;28;20445;-79
2023/08/17 01:15:53;;;;;;;38.97;36.97;;;;;;;18.34;100.00;101120.22;5007810;28;20404;-79
2023/08/17 01:18:25;;;;;;;37.05;35.15;;;;;;;18.30;100.00;101128.75;5007521;28;20056;-79
2023/08/17 01:20:54;;;;;;;37.13;35.13;;;;;;;18.25;100.00;101123.31;5005868;28;20050;-79
2023/08/17 01:23:22;;;;;;;37.25;35.25;;;;;;;18.21;100.00;101121.34;5004036;28;20419;-79
2023/08/17 01:25:49;;;;;;;37.83;35.83;;;;;;;18.05;100.00;101114.94;5001728;28;20061;-79
2023/08/17 01:28:16;;;;;;;40.28;38.08;;;;;;;17.96;100.00;101125.28;5001564;28;20049;-79
2023/08/17 01:30:51;;;;;;;35.75;33.80;;;;;;;17.90;100.00;101126.25;5006138;28;20069;-80
2023/08/17 01:33:25;;;;;;;38.60;36.60;;;;;;;17.92;100.00;101118.78;5006383;28;20100;-82
2023/08/17 01:36:00;;;;;;;37.25;35.25;;;;;;;17.88;100.00;101124.88;5007641;28;20127;-82
2023/08/17 01:38:30;;;;;;;41.30;39.10;;;;;;;17.40;100.00;101117.09;5006684;28;20046;-82
2023/08/17 01:40:59;;;;;;;38.05;36.05;;;;;;;17.81;100.00;101123.16;5007612;28;20049;-82
2023/08/17 01:43:27;;;;;;;33.08;31.05;;;;;;;17.82;100.00;101124.81;5007575;28;20050;-82
2023/08/17 01:45:53;;;;;;;38.40;36.30;;;;;;;17.68;100.00;101123.47;5007744;28;20427;-82
2023/08/17 01:48:20;;;;;;;36.92;34.83;;;;;;;17.28;100.00;101128.94;5008015;28;20049;-82
2023/08/17 01:50:47;;;;;;;38.08;36.08;;;;;;;17.57;100.00;101125.16;5004437;28;20057;-82
2023/08/17 01:53:14;;;;;;;40.78;38.75;;;;;;;17.82;100.00;101130.19;5008890;28;20456;-82
2023/08/17 01:55:43;;;;;;;34.60;32.70;;;;;;;17.83;100.00;101128.31;5008805;28;20042;-82
2023/08/17 01:58:09;;;;;;;35.13;33.33;;;;;;;18.02;100.00;101123.50;4986877;28;20042;-82
2023/08/17 02:00:36;;;;;;;34.55;32.75;;;;;;;17.98;100.00;101125.88;4983992;28;20046;-82
2023/08/17 02:03:03;;;;;;;40.72;38.40;;;;;;;17.75;100.00;101124.09;4983777;28;20054;-82
2023/08/17 02:05:30;;;;;;;41.47;39.47;;;;;;;17.34;100.00;101122.59;4985385;28;20057;-82
2023/08/17 02:07:57;;;;;;;44.10;41.78;;;;;;;17.31;100.00;101123.09;4988817;28;20047;-82
2023/08/17 02:10:24;;;;;;;40.13;37.58;;;;;;;17.65;100.00;101123.13;4987442;28;20065;-82
2023/08/17 02:12:52;;;;;;;47.72;45.53;;;;;;;17.68;100.00;101112.72;4990302;28;20054;-83
2023/08/17 02:15:19;;;;;;;54.13;51.45;;;;;;;17.45;100.00;101110.16;4990198;28;20046;-83
2023/08/17 02:17:46;;;;;;;53.72;51.22;;;;;;;17.80;100.00;101112.69;4992411;28;20513;-83
2023/08/17 02:20:14;;;;;;;62.42;59.72;;;;;;;17.67;100.00;101112.94;4986316;28;20846;-82
2023/08/17 02:22:41;;;;;;;47.72;45.42;;;;;;;17.85;100.00;101112.72;4992750;28;20343;-82
2023/08/17 02:25:09;;;;;;;49.88;47.13;;;;;;;17.73;100.00;101114.66;4990698;28;20182;-82
2023/08/17 02:27:36;;;;;;;49.28;46.78;;;;;;;17.61;100.00;101115.56;4991337;28;20054;-82
2023/08/17 02:30:05;;;;;;;51.47;48.13;;;;;;;17.77;100.00;101122.03;4991200;28;20047;-82
2023/08/17 02:32:32;;;;;;;44.50;42.22;;;;;;;17.54;100.00;101125.63;4990282;28;20042;-82
2023/08/17 02:34:59;;;;;;;50.88;48.17;;;;;;;17.50;100.00;101123.69;4983714;28;20529;-82
2023/08/17 02:37:26;;;;;;;43.65;41.35;;;;;;;17.55;100.00;101126.44;4989121;28;20043;-82
2023/08/17 02:39:52;;;;;;;47.15;44.85;;;;;;;17.42;100.00;101122.19;4986834;28;20046;-81
2023/08/17 02:42:19;;;;;;;38.83;36.72;;;;;;;17.47;100.00;101127.66;4992872;28;20054;-82
2023/08/17 02:44:46;;;;;;;42.60;40.35;;;;;;;17.23;100.00;101131.53;4990435;28;20065;-82
2023/08/17 02:47:14;;;;;;;38.90;36.80;;;;;;;17.13;100.00;101126.78;4990702;28;20053;-82
2023/08/17 02:49:41;;;;;;;39.50;37.50;;;;;;;17.46;100.00;101127.91;4989281;28;20711;-82
2023/08/17 02:52:08;;;;;;;50.40;47.90;;;;;;;17.41;100.00;101131.31;4985183;28;20061;-82
2023/08/17 02:54:35;;;;;;;49.88;47.47;;;;;;;17.41;100.00;101128.63;4987873;28;20435;-82
2023/08/17 02:57:02;;;;;;;50.88;48.38;;;;;;;17.35;100.00;101135.78;4999726;28;20058;-83
2023/08/17 02:59:29;;;;;;;43.97;41.78;;;;;;;17.26;100.00;101128.34;5009705;28;20045;-83
2023/08/17 03:01:56;;;;;;;47.03;44.63;;;;;;;17.40;100.00;101130.50;5011520;28;20497;-81
2023/08/17 03:04:24;;;;;;;39.30;37.40;;;;;;;17.24;100.00;101125.09;5011731;28;20096;-80
2023/08/17 03:06:54;;;;;;;41.13;38.95;;;;;;;17.23;100.00;101128.84;5008098;28;20089;-80
2023/08/17 03:09:24;;;;;;;37.92;36.03;;;;;;;17.11;100.00;101131.56;5006193;28;20081;-80
2023/08/17 03:11:51;;;;;;;40.95;38.95;;;;;;;17.29;100.00;101131.38;5008307;28;20604;-83
2023/08/17 03:14:20;;;;;;;36.05;34.25;;;;;;;17.26;100.00;101134.53;5007534;28;20065;-82
2023/08/17 03:16:47;;;;;;;31.50;29.73;;;;;;;17.00;100.00;101141.28;5010863;28;20050;-80
2023/08/17 03:19:14;;;;;;;30.67;29.02;;;;;;;17.17;100.00;101139.47;5010849;28;20050;-79
2023/08/17 03:21:42;;;;;;;32.55;30.85;;;;;;;16.94;100.00;101134.16;5009977;28;20049;-83
2023/08/17 03:24:09;;;;;;;31.23;29.52;;;;;;;16.91;100.00;101142.69;5005531;28;20054;-83
2023/08/17 03:26:36;;;;;;;35.08;33.22;;;;;;;16.13;100.00;101142.06;4996569;28;20046;-82
2023/08/17 03:29:03;;;;;;;36.08;34.33;;;;;;;16.83;100.00;101141.22;5010185;28;20052;-82
2023/08/17 03:31:29;;;;;;;29.85;28.25;;;;;;;16.97;100.00;101135.56;5004727;28;20039;-83
2023/08/17 03:33:56;;;;;;;25.45;24.05;;;;;;;16.97;100.00;101144.44;5009070;28;20041;-83
2023/08/17 03:36:23;;;;;;;24.80;23.35;;;;;;;17.03;100.00;101143.47;5006278;28;20045;-83
2023/08/17 03:38:51;;;;;;;22.67;21.48;;;;;;;16.69;100.00;101143.28;5006071;28;20064;-83
2023/08/17 03:41:19;;;;;;;26.50;24.83;;;;;;;16.63;100.00;101140.75;5010534;28;20042;-83
2023/08/17 03:43:46;;;;;;;26.60;25.17;;;;;;;16.58;100.00;101133.44;5010740;28;20068;-83
2023/08/17 03:46:13;;;;;;;26.20;24.80;;;;;;;16.42;100.00;101139.50;5009274;28;20060;-83
2023/08/17 03:48:40;;;;;;;26.77;25.48;;;;;;;16.71;100.00;101141.22;5003714;28;20053;-82
2023/08/17 03:51:08;;;;;;;26.05;24.75;;;;;;;17.05;100.00;101136.00;5009315;28;20050;-82
2023/08/17 03:53:35;;;;;;;27.55;26.10;;;;;;;17.17;100.00;101139.47;5007629;28;20065;-83
2023/08/17 03:56:03;;;;;;;26.30;24.90;;;;;;;17.33;100.00;101143.25;5004925;28;20057;-82
2023/08/17 03:58:34;;;;;;;24.10;22.70;;;;;;;17.15;100.00;101148.81;4655586;28;9999715;-83
2023/08/17 04:01:01;;;;;;;21.50;20.10;;;;;;;17.54;100.00;101141.75;5003006;28;20046;-83
2023/08/17 04:03:28;;;;;;;23.92;22.05;;;;;;;17.50;100.00;101131.75;5001868;28;20512;-83
2023/08/17 04:05:55;;;;;;;19.77;18.58;;;;;;;17.69;100.00;101135.81;5004767;28;20085;-82
2023/08/17 04:08:22;;;;;;;21.33;20.02;;;;;;;17.83;100.00;101147.91;5002893;28;20061;-83
2023/08/17 04:10:49;;;;;;;23.30;21.90;;;;;;;18.04;100.00;101150.94;5006244;28;20057;-83
2023/08/17 04:13:17;;;;;;;31.35;29.75;;;;;;;18.01;100.00;101151.44;5006535;28;20519;-83
2023/08/17 04:15:44;;;;;;;30.23;28.33;;;;;;;18.12;100.00;101157.75;5004598;28;20060;-83
2023/08/17 04:18:11;;;;;;;27.90;26.20;;;;;;;18.10;100.00;101151.84;5003599;28;20053;-83
2023/08/17 04:20:38;;;;;;;25.73;24.23;;;;;;;18.07;100.00;101148.56;5003417;28;20172;-82
2023/08/17 04:23:05;;;;;;;27.67;26.08;;;;;;;18.08;100.00;101149.38;5005401;28;20185;-82
2023/08/17 04:25:32;;;;;;;32.20;30.40;;;;;;;18.17;100.00;101141.72;5001576;28;20042;-82
2023/08/17 04:27:58;;;;;;;29.55;27.63;;;;;;;18.22;100.00;101153.38;5004430;28;20081;-83
2023/08/17 04:30:27;;;;;;;28.13;26.33;;;;;;;18.24;100.00;101153.13;5005748;28;20448;-83
2023/08/17 04:32:54;;;;;;;25.52;24.02;;;;;;;18.41;100.00;101155.78;5002425;28;20061;-82
2023/08/17 04:35:21;;;;;;;27.60;25.90;;;;;;;18.50;100.00;101157.00;5004197;28;20050;-83
2023/08/17 04:37:48;;;;;;;28.00;26.30;;;;;;;18.38;100.00;101151.72;5004694;28;20422;-83
2023/08/17 04:40:15;;;;;;;31.13;29.33;;;;;;;18.35;100.00;101154.91;5000396;28;20490;-83
2023/08/17 04:42:42;;;;;;;30.55;28.63;;;;;;;18.64;100.00;101160.97;5002475;28;20464;-83
2023/08/17 04:45:09;;;;;;;30.38;28.48;;;;;;;19.16;100.00;101155.16;4999527;28;20072;-83
2023/08/17 04:47:38;;;;;;;29.20;27.30;;;;;;;18.81;100.00;101162.81;5001921;28;20433;-83
2023/08/17 04:50:05;;;;;;;29.00;27.08;;;;;;;19.17;100.00;101147.91;5003371;28;20069;-83
2023/08/17 04:52:32;;;;;;;28.58;26.77;;;;;;;19.23;100.00;101158.47;5000586;28;20532;-83
2023/08/17 04:54:59;;;;;;;30.05;28.05;;;;;;;19.34;100.00;101153.19;5001917;28;20072;-80
2023/08/17 04:57:28;;;;;;;31.45;29.45;;;;;;;19.20;100.00;101158.16;5000329;28;20057;-83
2023/08/17 04:59:54;;;;;;;31.33;29.35;;;;;;;19.50;100.00;101157.66;4997664;28;20062;-83
2023/08/17 05:02:21;;;;;;;27.33;25.63;;;;;;;19.87;100.00;101152.34;4999984;28;20433;-83
2023/08/17 05:04:49;;;;;;;29.05;26.95;;;;;;;20.12;100.00;101157.16;4998149;28;20049;-80
2023/08/17 05:07:16;;;;;;;28.70;26.80;;;;;;;20.27;100.00;101153.75;5001507;28;20058;-83
2023/08/17 05:09:43;;;;;;;28.52;26.73;;;;;;;20.33;100.00;101151.88;4999754;28;20092;-80
2023/08/17 05:12:10;;;;;;;57.97;27.30;;;;;;;20.49;100.00;101147.41;5001387;28;20353;-83
2023/08/17 05:14:37;;;;;;;29.40;27.60;;;;;;;20.45;100.00;101148.97;4997684;28;20159;-83
2023/08/17 05:17:04;;;;;;;30.65;29.05;;;;;;;20.44;100.00;101150.88;4998471;28;20042;-83
2023/08/17 05:19:31;;;;;;;31.17;29.40;;;;;;;20.68;100.00;101137.00;5004224;28;20045;-83
2023/08/17 05:21:59;;;;;;;32.15;30.45;;;;;;;20.93;100.00;101133.56;4998233;28;20051;-83
2023/08/17 05:24:26;;;;;;;27.23;25.73;;;;;;;20.63;100.00;101148.56;5000404;28;20056;-83
2023/08/17 05:26:54;;;;;;;35.15;33.55;;;;;;;20.98;100.00;101139.00;5004638;28;20058;-83
2023/08/17 05:29:21;;;;;;;35.55;33.95;;;;;;;21.44;100.00;101136.44;5000153;28;20069;-83
2023/08/17 05:31:48;;;;;;;33.50;32.00;;;;;;;21.37;100.00;101133.19;5001651;28;20085;-83
2023/08/17 05:34:15;;;;;;;38.13;29.85;;;;;;;21.53;100.00;101137.53;5002036;28;20441;-83
2023/08/17 05:36:43;;;;;;;33.80;32.10;;;;;;;22.03;100.00;101135.91;5001005;28;20053;-83
2023/08/17 05:39:12;;;;;;;33.03;31.52;;;;;;;22.27;100.00;101132.63;5003016;28;20049;-83
2023/08/17 05:41:39;;;;;;;30.85;29.33;;;;;;;22.59;100.00;101135.78;5001705;28;20438;-83
2023/08/17 05:44:06;;;;;;;29.90;28.40;;;;;;;22.63;100.00;101130.63;5003911;28;20053;-80
2023/08/17 05:46:33;;;;;;;25.73;24.30;;;;;;;22.67;100.00;101130.91;5003891;28;20050;-80
2023/08/17 05:49:01;;;;;;;32.28;30.58;;;;;;;22.89;100.00;101134.06;5006915;28;20550;-80
2023/08/17 05:51:27;;;;;;;32.10;30.40;;;;;;;23.40;100.00;101130.28;5003413;28;20425;-80
2023/08/17 05:53:54;;;;;;;32.42;30.73;;;;;;;23.52;100.00;101117.16;5004747;28;20050;-80
2023/08/17 05:56:23;;;;;;;32.92;31.30;;;;;;;23.87;100.00;101112.56;5003252;28;20445;-80
2023/08/17 05:58:50;;;;;;;34.58;32.97;;;;;;;24.34;100.00;101111.81;5006125;28;20468;-80
2023/08/17 06:01:17;;;;;;;33.10;31.50;;;;;;;24.67;100.00;101112.81;5006399;28;20560;-80
2023/08/17 06:03:43;;;;;;;31.08;29.58;;;;;;;25.01;100.00;101111.81;5000220;28;20271;-80
2023/08/17 06:06:10;;;;;;;32.95;31.25;;;;;;;25.08;100.00;101112.28;5003424;28;20049;-83
2023/08/17 06:08:37;;;;;;;32.53;30.73;;;;;;;25.32;100.00;101108.66;5004683;28;20485;-83
2023/08/17 06:11:04;;;;;;;30.70;28.90;;;;;;;25.61;100.00;101110.41;5005432;28;20072;-83
2023/08/17 06:13:32;;;;;;;21.15;19.95;;;;;;;25.65;100.00;101108.69;5002497;28;20056;-80
2023/08/17 06:15:59;;;;;;;21.67;20.48;;;;;;;25.59;100.00;101106.03;5006442;28;20529;-80
2023/08/17 06:18:26;;;;;;;20.98;19.88;;;;;;;25.66;100.00;101111.13;5005190;28;20544;-80
2023/08/17 06:20:55;;;;;;;20.80;19.70;;;;;;;25.89;100.00;101101.22;5000947;28;20058;-80
2023/08/17 06:23:22;;;;;;;22.20;21.00;;;;;;;26.25;100.00;101114.97;5005498;28;20152;-80
2023/08/17 06:25:48;;;;;;;23.63;22.00;;;;;;;26.41;100.00;101110.03;5006693;28;20533;-80
2023/08/17 06:28:15;;;;;;;21.73;20.52;;;;;;;26.33;100.00;101108.03;5001373;28;20057;-81
2023/08/17 06:30:44;;;;;;;22.27;20.83;;;;;;;26.59;100.00;101113.78;5006489;28;20038;-81
2023/08/17 06:33:11;;;;;;;21.20;20.00;;;;;;;27.03;100.00;101123.19;5002774;28;20053;-80
2023/08/17 06:35:38;;;;;;;22.17;20.90;;;;;;;27.02;100.00;101120.75;5010012;28;20155;-83
2023/08/17 06:38:05;;;;;;;22.75;21.45;;;;;;;26.95;100.00;101119.28;4999011;28;20549;-83
2023/08/17 06:40:31;;;;;;;20.98;19.77;;;;;;;27.15;100.00;101126.22;5005381;28;20050;-83
2023/08/17 06:42:58;;;;;;;23.95;20.17;;;;;;;27.35;100.00;101127.69;5003986;28;20502;-83
2023/08/17 06:45:25;;;;;;;23.00;21.70;;;;;;;27.32;100.00;101127.47;5002331;28;20054;-83
2023/08/17 06:47:53;;;;;;;20.67;19.48;;;;;;;27.36;100.00;101133.94;5005057;28;20394;-83
2023/08/17 06:50:20;;;;;;;22.60;21.30;;;;;;;27.17;100.00;101128.63;4999756;28;20057;-82
2023/08/17 06:52:47;;;;;;;19.30;18.10;;;;;;;27.39;100.00;101131.41;5002103;28;20137;-84
2023/08/17 06:55:15;;;;;;;19.77;18.58;;;;;;;27.84;100.00;101125.16;5003050;28;20443;-80
2023/08/17 06:57:42;;;;;;;28.00;17.63;;;;;;;27.64;100.00;101119.03;4996381;28;20053;-81
2023/08/17 07:00:11;;;;;;;20.70;19.30;;;;;;;27.77;100.00;101128.25;5000851;28;20056;-80
2023/08/17 07:02:37;;;;;;;19.15;17.95;;;;;;;27.73;100.00;101115.56;5003335;28;20077;-81
2023/08/17 07:05:08;;;;;;;20.95;19.75;;;;;;;28.06;100.00;101119.63;5003129;28;20069;-81
2023/08/17 07:07:35;;;;;;;22.05;20.75;;;;;;;28.18;100.00;101126.44;4999489;28;20133;-81
2023/08/17 07:10:02;;;;;;;19.63;18.25;;;;;;;28.27;100.00;101121.81;5005444;28;20050;-80
2023/08/17 07:12:29;;;;;;;19.67;18.48;;;;;;;28.22;100.00;101119.22;4999695;28;20057;-81
2023/08/17 07:14:56;;;;;;;24.35;22.95;;;;;;;28.12;100.00;101123.03;5002656;28;20498;-81
2023/08/17 07:17:26;;;;;;;24.30;22.80;;;;;;;28.25;100.00;101122.09;5000278;28;20058;-80
2023/08/17 07:19:56;;;;;;;24.92;23.50;;;;;;;28.61;100.00;101126.59;5001355;28;20120;-81
2023/08/17 07:22:27;;;;;;;26.88;25.20;;;;;;;28.54;100.00;101120.81;5004189;28;20068;-81
2023/08/17 07:24:54;;;;;;;24.90;23.40;;;;;;;28.74;100.00;101125.66;5004417;28;20465;-81
2023/08/17 07:27:22;;;;;;;24.00;22.50;;;;;;;28.85;100.00;101123.44;5001641;28;20050;-81
2023/08/17 07:29:49;;;;;;;23.50;22.10;;;;;;;28.98;100.00;101122.47;5003052;28;20589;-81
2023/08/17 07:32:16;;;;;;;22.90;21.60;;;;;;;29.20;100.00;101132.50;5006254;28;20426;-81
2023/08/17 07:34:43;;;;;;;22.65;21.23;;;;;;;29.26;100.00;101124.94;5004306;28;20504;-81
2023/08/17 07:37:10;;;;;;;22.75;21.30;;;;;;;29.36;100.00;101123.81;4999864;28;20048;-81
2023/08/17 07:39:39;;;;;;;26.30;24.80;;;;;;;29.60;100.00;101123.28;5004389;28;20553;-81
2023/08/17 07:42:06;;;;;;;23.42;21.63;;;;;;;29.08;100.00;101112.38;5003341;28;20509;-81
2023/08/17 07:44:33;;;;;;;23.17;21.67;;;;;;;29.69;100.00;101118.63;5000770;28;20050;-80
2023/08/17 07:47:00;;;;;;;29.85;21.95;;;;;;;29.90;100.00;101118.75;5000149;28;20143;-81
2023/08/17 07:49:30;;;;;;;23.00;21.80;;;;;;;29.76;100.00;101110.72;5004744;28;20045;-81
2023/08/17 07:51:57;;;;;;;23.05;21.77;;;;;;;29.02;100.00;101111.75;5003478;28;20410;-81
2023/08/17 07:54:24;;;;;;;21.50;20.10;;;;;;;29.14;100.00;101114.66;5003608;28;20050;-84
2023/08/17 07:56:52;;;;;;;21.55;20.25;;;;;;;29.52;100.00;101113.16;5003614;28;20065;-83
2023/08/17 07:59:19;;;;;;;23.58;21.90;;;;;;;30.03;100.00;101112.25;4999658;28;20141;-77
2023/08/17 08:01:46;;;;;;;24.00;22.60;;;;;;;30.57;100.00;101095.25;5002107;28;20420;-78
2023/08/17 08:04:12;;;;;;;26.25;24.45;;;;;;;29.88;100.00;101110.03;5000563;28;20057;-83
2023/08/17 08:06:39;;;;;;;24.30;22.77;;;;;;;30.21;100.00;101098.50;4996260;28;20046;-81
2023/08/17 08:09:07;;;;;;;25.33;23.73;;;;;;;30.49;100.00;101094.16;5000413;28;20498;-82
2023/08/17 08:11:33;;;;;;;26.95;24.95;;;;;;;30.59;100.00;101106.66;5001803;28;20578;-82
2023/08/17 08:14:02;;;;;;;26.15;24.45;;;;;;;31.01;100.00;101103.97;5000693;28;20046;-81
2023/08/17 08:16:30;;;;;;;26.50;24.88;;;;;;;30.91;100.00;101096.16;5000878;28;20107;-81
2023/08/17 08:18:57;;;;;;;23.75;22.25;;;;;;;30.31;100.00;101103.59;4998405;28;20058;-81
2023/08/17 08:21:24;;;;;;;23.88;22.38;;;;;;;30.01;100.00;101094.53;5004403;28;20050;-82
2023/08/17 08:23:50;;;;;;;24.83;23.23;;;;;;;30.34;100.00;101092.78;5003152;28;20061;-83
2023/08/17 08:26:17;;;;;;;24.65;22.98;;;;;;;30.29;100.00;101093.00;5001786;28;20049;-84
2023/08/17 08:28:44;;;;;;;25.02;23.42;;;;;;;30.26;100.00;101099.13;5004543;28;20049;-84
2023/08/17 08:31:13;;;;;;;27.02;25.33;;;;;;;29.96;100.00;101094.72;5001948;28;20050;-82
2023/08/17 08:33:39;;;;;;;27.95;25.15;;;;;;;30.56;100.00;101093.63;4994330;28;20051;-82
2023/08/17 08:36:07;;;;;;;24.98;23.48;;;;;;;30.48;100.00;101098.03;5006026;28;20054;-82
2023/08/17 08:38:33;;;;;;;24.73;23.10;;;;;;;29.75;100.00;101089.16;4998502;28;20066;-81
2023/08/17 08:41:02;;;;;;;25.55;23.95;;;;;;;30.87;100.00;101092.50;5005042;28;20045;-81
2023/08/17 08:43:29;;;;;;;26.52;24.90;;;;;;;30.67;100.00;101091.31;5004642;28;20064;-81
2023/08/17 08:45:55;;;;;;;25.15;23.55;;;;;;;31.24;100.00;101090.72;4995414;28;20042;-81
2023/08/17 08:48:27;;;;;;;27.27;25.58;;;;;;;29.77;100.00;101081.41;4999433;28;20100;-81
2023/08/17 08:50:56;;;;;;;28.42;26.63;;;;;;;30.22;100.00;101069.97;5004926;28;20434;-81
2023/08/17 08:53:32;;;;;;;26.27;24.58;;;;;;;30.74;100.00;101070.47;5002409;28;20038;-81
2023/08/17 08:56:01;;;;;;;25.10;23.40;;;;;;;31.25;100.00;101073.91;5002411;28;20058;-81
2023/08/17 08:58:30;;;;;;;24.98;23.08;;;;;;;31.13;100.00;101082.09;5004865;28;20046;-83
2023/08/17 09:00:59;;;;;;;24.50;23.00;;;;;;;30.58;100.00;101074.91;5005760;28;20046;-81
2023/08/17 09:03:28;;;;;;;24.98;23.27;;;;;;;29.57;100.00;101069.22;4999856;28;20480;-81
2023/08/17 09:05:57;;;;;;;25.85;24.05;;;;;;;30.80;100.00;101069.16;4999716;28;20510;-84
2023/08/17 09:08:28;;;;;;;25.70;24.00;;;;;;;31.02;100.00;101068.00;5005280;28;20514;-84
2023/08/17 09:10:55;;;;;;;27.50;25.80;;;;;;;30.84;100.00;101061.06;5004115;28;20050;-84
2023/08/17 09:13:22;;;;;;;27.35;25.65;;;;;;;31.12;100.00;101071.47;5008573;28;20045;-85
2023/08/17 09:15:49;;;;;;;27.90;26.00;;;;;;;31.87;100.00;101065.88;5007135;28;20049;-84
2023/08/17 09:18:17;;;;;;;38.85;25.60;;;;;;;31.54;100.00;101061.22;5006239;28;20045;-84
2023/08/17 09:20:47;;;;;;;28.75;26.85;;;;;;;31.05;100.00;101063.78;5004171;28;20061;-84
2023/08/17 09:23:15;;;;;;;27.48;25.67;;;;;;;31.94;100.00;101050.44;5007701;28;20050;-85
2023/08/17 09:25:43;;;;;;;26.45;24.75;;;;;;;31.30;100.00;101052.91;5009569;28;20077;-81
2023/08/17 09:28:12;;;;;;;24.08;22.48;;;;;;;31.05;100.00;101052.03;5006548;28;20484;-81
2023/08/17 09:30:56;;;;;;;25.02;23.33;;;;;;;31.71;100.00;101051.97;4998259;28;20116;-81
2023/08/17 09:33:27;;;;;;;26.60;24.70;;;;;;;32.54;100.00;101038.97;5005007;28;20051;-78
2023/08/17 09:35:56;;;;;;;23.98;22.25;;;;;;;31.62;100.00;101043.03;5008350;28;20083;-78
2023/08/17 09:38:23;;;;;;;26.45;24.75;;;;;;;31.46;100.00;101045.66;5004140;28;20046;-79
2023/08/17 09:40:51;;;;;;;25.65;23.85;;;;;;;32.26;100.00;101038.88;5005241;28;20469;-78
2023/08/17 09:43:20;;;;;;;28.10;26.40;;;;;;;31.17;100.00;101044.63;4996117;28;20490;-76
2023/08/17 09:45:49;;;;;;;27.30;25.67;;;;;;;30.61;100.00;101044.09;5001953;28;20124;-76
2023/08/17 09:48:18;;;;;;;26.70;25.00;;;;;;;31.14;100.00;101034.34;5001105;28;20077;-79
2023/08/17 09:50:46;;;;;;;25.92;24.27;;;;;;;30.61;100.00;101046.84;5000893;28;20049;-80
2023/08/17 09:53:15;;;;;;;25.17;23.67;;;;;;;30.82;100.00;101043.34;4995499;28;20046;-80
2023/08/17 09:55:43;;;;;;;26.65;25.15;;;;;;;31.97;100.00;101028.94;4997275;28;20449;-78
2023/08/17 09:58:14;;;;;;;25.02;23.42;;;;;;;31.15;100.00;101041.41;4966419;28;20053;-80
2023/08/17 10:00:44;;;;;;;24.77;23.27;;;;;;;31.21;100.00;101039.28;4964055;28;20538;-80
2023/08/17 10:03:12;;;;;;;25.35;23.95;;;;;;;33.05;100.00;101029.06;4964752;28;20461;-78
2023/08/17 10:05:42;;;;;;;25.10;23.60;;;;;;;32.29;100.00;101028.00;4963191;28;20549;-76
2023/08/17 10:08:11;;;;;;;25.27;23.83;;;;;;;32.22;100.00;101022.25;4964938;28;20055;-76
2023/08/17 10:10:42;;;;;;;27.13;25.63;;;;;;;31.83;100.00;101021.00;4966850;28;20152;-76
2023/08/17 10:13:10;;;;;;;29.10;27.40;;;;;;;30.95;100.00;101034.81;4954270;28;20548;-76
2023/08/17 10:15:42;;;;;;;26.70;25.20;;;;;;;31.91;100.00;101031.09;4967958;28;20058;-76
2023/08/17 10:18:18;;;;;;;24.83;23.33;;;;;;;33.55;99.62;101020.56;4966312;28;20047;-80
2023/08/17 10:20:53;;;;;;;34.92;26.05;;;;;;;34.38;91.37;101002.06;4964722;28;20057;-79
2023/08/17 10:23:23;;;;;;;24.20;22.70;;;;;;;33.75;98.25;101008.47;4965341;28;20050;-78
2023/08/17 10:25:52;;;;;;;24.48;22.67;;;;;;;33.88;94.27;101012.72;4965093;28;20050;-78
2023/08/17 10:28:20;;;;;;;24.38;22.88;;;;;;;33.11;100.00;101006.81;4964691;28;20062;-78
2023/08/17 10:30:48;;;;;;;24.73;23.23;;;;;;;31.99;100.00;101012.91;4965735;28;20060;-78
2023/08/17 10:33:16;;;;;;;24.73;23.13;;;;;;;34.01;91.18;101007.88;4966144;28;20038;-78
2023/08/17 10:35:44;;;;;;;24.75;23.25;;;;;;;34.00;90.10;101002.75;4968453;28;20054;-79
2023/08/17 10:38:12;;;;;;;25.80;24.00;;;;;;;33.25;95.25;101004.44;4968047;28;20042;-79
2023/08/17 10:40:42;;;;;;;28.20;26.50;;;;;;;32.36;100.00;101003.47;4968079;28;20051;-78
2023/08/17 10:43:12;;;;;;;25.55;23.85;;;;;;;33.62;93.23;101012.47;4968343;28;20043;-77
2023/08/17 10:45:39;;;;;;;24.83;23.15;;;;;;;33.50;93.43;101018.84;4967786;28;20403;-77
2023/08/17 10:48:28;;;;;;;27.90;26.10;;;;;;;32.47;100.00;101009.31;4967666;28;20074;-77
2023/08/17 10:51:03;;;;;;;24.58;23.08;;;;;;;33.15;96.67;100999.44;4962806;28;20075;-78
2023/08/17 10:53:38;;;;;;;27.42;25.02;;;;;;;33.29;96.09;101002.59;4967545;28;20082;-78
2023/08/17 10:56:08;;;;;;;27.58;25.77;;;;;;;32.89;100.00;101008.13;4972364;28;20074;-77
2023/08/17 10:58:36;;;;;;;24.95;23.45;;;;;;;34.24;82.48;100999.78;4999355;28;20127;-78
2023/08/17 11:01:03;;;;;;;27.27;25.58;;;;;;;33.79;91.88;101000.28;4997058;28;20414;-77
2023/08/17 11:03:30;;;;;;;25.15;23.55;;;;;;;33.61;95.10;100995.16;4998168;28;20046;-77
2023/08/17 11:05:58;;;;;;;28.77;26.85;;;;;;;33.62;94.64;100988.50;5000134;28;20445;-77